sensor_id;sensor_type;location;lat;lon;timestamp;P1;durP1;ratioP1;P2;durP2;ratioP2
6109;SDS011;3085;49.444;11.054;2022-11-03T00:01:06;14.23;;;3.50;;
6109;SDS011;3085;49.444;11.054;2022-11-03T00:03:33;7.73;;;4.27;;
6109;SDS011;3085;49.444;11.054;2022-11-03T00:06:02;6.57;;;3.40;;
6109;SDS011;3085;49.444;11.054;2022-11-03T00:08:36;9.27;;;4.67;;
6109;SDS011;3085;49.444;11.054;2022-11-03T00:11:04;11.13;;;4.90;;
6109;SDS011;3085;49.444;11.054;2022-11-03T00:13:33;7.60;;;3.70;;
6109;SDS011;3085;49.444;11.054;2022-11-03T00:16:01;9.20;;;3.30;;
6109;SDS011;3085;49.444;11.054;2022-11-03T00:18:28;11.90;;;4.10;;
6109;SDS011;3085;49.444;11.054;2022-11-03T00:20:56;12.77;;;3.77;;
6109;SDS011;3085;49.444;11.054;2022-11-03T00:23:26;12.53;;;4.13;;
6109;SDS011;3085;49.444;11.054;2022-11-03T00:25:55;5.40;;;3.43;;
6109;SDS011;3085;49.444;11.054;2022-11-03T00:28:29;9.63;;;3.83;;
6109;SDS011;3085;49.444;11.054;2022-11-03T00:30:56;9.13;;;2.93;;
6109;SDS011;3085;49.444;11.054;2022-11-03T00:33:23;5.33;;;3.40;;
6109;SDS011;3085;49.444;11.054;2022-11-03T00:35:55;4.00;;;2.73;;
6109;SDS011;3085;49.444;11.054;2022-11-03T00:38:23;8.80;;;5.03;;
6109;SDS011;3085;49.444;11.054;2022-11-03T00:40:54;8.93;;;4.87;;
6109;SDS011;3085;49.444;11.054;2022-11-03T00:43:23;10.07;;;5.00;;
6109;SDS011;3085;49.444;11.054;2022-11-03T00:45:51;18.03;;;7.07;;
6109;SDS011;3085;49.444;11.054;2022-11-03T00:48:18;31.23;;;7.57;;
6109;SDS011;3085;49.444;11.054;2022-11-03T00:50:59;20.27;;;7.50;;
6109;SDS011;3085;49.444;11.054;2022-11-03T00:53:27;22.03;;;7.63;;
6109;SDS011;3085;49.444;11.054;2022-11-03T00:55:56;24.63;;;6.90;;
6109;SDS011;3085;49.444;11.054;2022-11-03T00:58:24;17.90;;;7.10;;
6109;SDS011;3085;49.444;11.054;2022-11-03T01:00:57;14.30;;;6.53;;
6109;SDS011;3085;49.444;11.054;2022-11-03T01:03:24;12.40;;;4.57;;
6109;SDS011;3085;49.444;11.054;2022-11-03T01:05:51;17.07;;;6.60;;
6109;SDS011;3085;49.444;11.054;2022-11-03T01:08:36;11.53;;;4.90;;
6109;SDS011;3085;49.444;11.054;2022-11-03T01:11:06;17.47;;;4.30;;
6109;SDS011;3085;49.444;11.054;2022-11-03T01:13:51;13.50;;;4.23;;
6109;SDS011;3085;49.444;11.054;2022-11-03T01:16:18;8.90;;;4.10;;
6109;SDS011;3085;49.444;11.054;2022-11-03T01:18:45;8.73;;;4.07;;
6109;SDS011;3085;49.444;11.054;2022-11-03T01:21:12;9.97;;;4.30;;
6109;SDS011;3085;49.444;11.054;2022-11-03T01:23:39;8.17;;;3.97;;
6109;SDS011;3085;49.444;11.054;2022-11-03T01:26:09;8.80;;;4.00;;
6109;SDS011;3085;49.444;11.054;2022-11-03T01:28:38;5.10;;;3.27;;
6109;SDS011;3085;49.444;11.054;2022-11-03T01:31:06;16.90;;;4.80;;
6109;SDS011;3085;49.444;11.054;2022-11-03T01:33:35;8.23;;;3.30;;
6109;SDS011;3085;49.444;11.054;2022-11-03T01:36:02;14.93;;;4.90;;
6109;SDS011;3085;49.444;11.054;2022-11-03T01:38:30;12.57;;;3.90;;
6109;SDS011;3085;49.444;11.054;2022-11-03T01:40:58;18.13;;;5.13;;
6109;SDS011;3085;49.444;11.054;2022-11-03T01:43:27;12.80;;;5.07;;
6109;SDS011;3085;49.444;11.054;2022-11-03T01:45:57;12.90;;;5.67;;
6109;SDS011;3085;49.444;11.054;2022-11-03T01:48:28;12.77;;;5.80;;
6109;SDS011;3085;49.444;11.054;2022-11-03T01:50:55;11.40;;;4.63;;
6109;SDS011;3085;49.444;11.054;2022-11-03T01:53:22;13.27;;;4.57;;
6109;SDS011;3085;49.444;11.054;2022-11-03T01:55:50;15.23;;;5.53;;
6109;SDS011;3085;49.444;11.054;2022-11-03T01:58:20;14.30;;;5.63;;
6109;SDS011;3085;49.444;11.054;2022-11-03T02:00:51;13.97;;;5.03;;
6109;SDS011;3085;49.444;11.054;2022-11-03T02:03:22;6.30;;;3.70;;
6109;SDS011;3085;49.444;11.054;2022-11-03T02:05:51;9.07;;;3.97;;
6109;SDS011;3085;49.444;11.054;2022-11-03T02:08:21;10.27;;;3.57;;
6109;SDS011;3085;49.444;11.054;2022-11-03T02:10:53;7.37;;;3.63;;
6109;SDS011;3085;49.444;11.054;2022-11-03T02:13:20;6.30;;;3.47;;
6109;SDS011;3085;49.444;11.054;2022-11-03T02:15:51;5.60;;;3.83;;
6109;SDS011;3085;49.444;11.054;2022-11-03T02:18:20;10.07;;;3.50;;
6109;SDS011;3085;49.444;11.054;2022-11-03T02:20:52;9.07;;;2.90;;
6109;SDS011;3085;49.444;11.054;2022-11-03T02:23:28;11.27;;;3.37;;
6109;SDS011;3085;49.444;11.054;2022-11-03T02:26:02;10.43;;;3.00;;
6109;SDS011;3085;49.444;11.054;2022-11-03T02:28:32;7.13;;;2.80;;
6109;SDS011;3085;49.444;11.054;2022-11-03T02:31:02;6.50;;;3.10;;
6109;SDS011;3085;49.444;11.054;2022-11-03T02:33:39;10.60;;;4.00;;
6109;SDS011;3085;49.444;11.054;2022-11-03T02:36:14;6.57;;;3.30;;
6109;SDS011;3085;49.444;11.054;2022-11-03T02:38:46;5.30;;;2.97;;
6109;SDS011;3085;49.444;11.054;2022-11-03T02:41:19;9.63;;;2.70;;
6109;SDS011;3085;49.444;11.054;2022-11-03T02:43:48;9.20;;;4.00;;
6109;SDS011;3085;49.444;11.054;2022-11-03T02:46:17;8.20;;;4.20;;
6109;SDS011;3085;49.444;11.054;2022-11-03T02:48:46;5.37;;;3.23;;
6109;SDS011;3085;49.444;11.054;2022-11-03T02:51:13;9.23;;;3.83;;
6109;SDS011;3085;49.444;11.054;2022-11-03T02:53:41;6.77;;;3.43;;
6109;SDS011;3085;49.444;11.054;2022-11-03T02:56:15;4.87;;;3.33;;
6109;SDS011;3085;49.444;11.054;2022-11-03T02:58:48;18.33;;;4.20;;
6109;SDS011;3085;49.444;11.054;2022-11-03T03:01:22;8.03;;;3.40;;
6109;SDS011;3085;49.444;11.054;2022-11-03T03:03:52;9.33;;;3.93;;
6109;SDS011;3085;49.444;11.054;2022-11-03T03:06:22;5.27;;;3.40;;
6109;SDS011;3085;49.444;11.054;2022-11-03T03:08:54;12.07;;;4.00;;
6109;SDS011;3085;49.444;11.054;2022-11-03T03:11:24;12.63;;;4.00;;
6109;SDS011;3085;49.444;11.054;2022-11-03T03:14:06;9.90;;;3.50;;
6109;SDS011;3085;49.444;11.054;2022-11-03T03:16:47;8.53;;;4.30;;
6109;SDS011;3085;49.444;11.054;2022-11-03T03:19:23;6.47;;;2.90;;
6109;SDS011;3085;49.444;11.054;2022-11-03T03:21:56;7.40;;;3.50;;
6109;SDS011;3085;49.444;11.054;2022-11-03T03:24:26;8.40;;;3.90;;
6109;SDS011;3085;49.444;11.054;2022-11-03T03:26:58;8.70;;;4.17;;
6109;SDS011;3085;49.444;11.054;2022-11-03T03:29:30;6.30;;;3.47;;
6109;SDS011;3085;49.444;11.054;2022-11-03T03:32:05;7.67;;;3.17;;
6109;SDS011;3085;49.444;11.054;2022-11-03T03:34:34;9.70;;;4.00;;
6109;SDS011;3085;49.444;11.054;2022-11-03T03:37:03;12.13;;;4.50;;
6109;SDS011;3085;49.444;11.054;2022-11-03T03:39:33;8.37;;;3.73;;
6109;SDS011;3085;49.444;11.054;2022-11-03T03:42:02;5.67;;;3.43;;
6109;SDS011;3085;49.444;11.054;2022-11-03T03:44:33;15.63;;;3.70;;
6109;SDS011;3085;49.444;11.054;2022-11-03T03:47:04;12.93;;;4.00;;
6109;SDS011;3085;49.444;11.054;2022-11-03T03:49:35;8.97;;;3.90;;
6109;SDS011;3085;49.444;11.054;2022-11-03T03:52:02;7.80;;;5.10;;
6109;SDS011;3085;49.444;11.054;2022-11-03T03:54:30;9.20;;;4.30;;
6109;SDS011;3085;49.444;11.054;2022-11-03T03:56:58;6.27;;;3.70;;
6109;SDS011;3085;49.444;11.054;2022-11-03T03:59:27;14.17;;;4.70;;
6109;SDS011;3085;49.444;11.054;2022-11-03T04:01:55;5.30;;;3.60;;
6109;SDS011;3085;49.444;11.054;2022-11-03T04:04:23;10.30;;;4.00;;
6109;SDS011;3085;49.444;11.054;2022-11-03T04:06:50;9.10;;;5.60;;
6109;SDS011;3085;49.444;11.054;2022-11-03T04:09:37;9.40;;;3.93;;
6109;SDS011;3085;49.444;11.054;2022-11-03T04:12:04;7.77;;;3.17;;
6109;SDS011;3085;49.444;11.054;2022-11-03T04:14:48;13.73;;;4.10;;
6109;SDS011;3085;49.444;11.054;2022-11-03T04:17:34;11.43;;;3.47;;
6109;SDS011;3085;49.444;11.054;2022-11-03T04:20:31;9.40;;;3.77;;
6109;SDS011;3085;49.444;11.054;2022-11-03T04:23:16;8.00;;;4.43;;
6109;SDS011;3085;49.444;11.054;2022-11-03T04:25:45;10.87;;;3.97;;
6109;SDS011;3085;49.444;11.054;2022-11-03T04:28:15;7.20;;;3.80;;
6109;SDS011;3085;49.444;11.054;2022-11-03T04:30:42;7.20;;;3.50;;
6109;SDS011;3085;49.444;11.054;2022-11-03T04:33:11;7.17;;;4.00;;
6109;SDS011;3085;49.444;11.054;2022-11-03T04:35:40;13.43;;;4.60;;
6109;SDS011;3085;49.444;11.054;2022-11-03T04:38:17;14.83;;;5.27;;
6109;SDS011;3085;49.444;11.054;2022-11-03T04:40:48;6.00;;;3.57;;
6109;SDS011;3085;49.444;11.054;2022-11-03T04:43:17;20.43;;;4.80;;
6109;SDS011;3085;49.444;11.054;2022-11-03T04:45:46;5.97;;;3.47;;
6109;SDS011;3085;49.444;11.054;2022-11-03T04:48:15;10.80;;;5.13;;
6109;SDS011;3085;49.444;11.054;2022-11-03T04:50:46;9.03;;;3.83;;
6109;SDS011;3085;49.444;11.054;2022-11-03T04:53:17;7.20;;;3.47;;
6109;SDS011;3085;49.444;11.054;2022-11-03T04:55:46;15.90;;;3.60;;
6109;SDS011;3085;49.444;11.054;2022-11-03T04:58:16;13.57;;;3.87;;
6109;SDS011;3085;49.444;11.054;2022-11-03T05:00:45;6.23;;;3.27;;
6109;SDS011;3085;49.444;11.054;2022-11-03T05:03:13;7.70;;;3.97;;
6109;SDS011;3085;49.444;11.054;2022-11-03T05:05:46;8.50;;;3.80;;
6109;SDS011;3085;49.444;11.054;2022-11-03T05:08:13;6.80;;;3.50;;
6109;SDS011;3085;49.444;11.054;2022-11-03T05:10:41;8.13;;;3.83;;
6109;SDS011;3085;49.444;11.054;2022-11-03T05:13:09;8.53;;;3.60;;
6109;SDS011;3085;49.444;11.054;2022-11-03T05:15:43;8.23;;;3.67;;
6109;SDS011;3085;49.444;11.054;2022-11-03T05:18:15;5.77;;;3.53;;
6109;SDS011;3085;49.444;11.054;2022-11-03T05:20:50;4.67;;;2.93;;
6109;SDS011;3085;49.444;11.054;2022-11-03T05:23:20;15.10;;;4.60;;
6109;SDS011;3085;49.444;11.054;2022-11-03T05:25:48;7.83;;;3.60;;
6109;SDS011;3085;49.444;11.054;2022-11-03T05:28:21;13.77;;;3.87;;
6109;SDS011;3085;49.444;11.054;2022-11-03T05:30:51;9.70;;;5.00;;
6109;SDS011;3085;49.444;11.054;2022-11-03T05:33:21;10.23;;;3.80;;
6109;SDS011;3085;49.444;11.054;2022-11-03T05:35:52;6.20;;;4.00;;
6109;SDS011;3085;49.444;11.054;2022-11-03T05:38:19;8.10;;;3.90;;
6109;SDS011;3085;49.444;11.054;2022-11-03T05:40:51;8.60;;;4.80;;
6109;SDS011;3085;49.444;11.054;2022-11-03T05:43:19;7.50;;;4.60;;
6109;SDS011;3085;49.444;11.054;2022-11-03T05:45:46;14.60;;;4.10;;
6109;SDS011;3085;49.444;11.054;2022-11-03T05:48:17;7.30;;;4.37;;
6109;SDS011;3085;49.444;11.054;2022-11-03T05:50:48;11.43;;;4.13;;
6109;SDS011;3085;49.444;11.054;2022-11-03T05:53:20;5.50;;;3.53;;
6109;SDS011;3085;49.444;11.054;2022-11-03T05:55:52;13.47;;;4.63;;
6109;SDS011;3085;49.444;11.054;2022-11-03T05:58:21;8.80;;;4.13;;
6109;SDS011;3085;49.444;11.054;2022-11-03T06:00:49;8.63;;;4.33;;
6109;SDS011;3085;49.444;11.054;2022-11-03T06:03:18;8.27;;;4.97;;
6109;SDS011;3085;49.444;11.054;2022-11-03T06:05:50;9.17;;;4.23;;
6109;SDS011;3085;49.444;11.054;2022-11-03T06:08:19;14.20;;;4.93;;
6109;SDS011;3085;49.444;11.054;2022-11-03T06:10:48;12.33;;;4.80;;
6109;SDS011;3085;49.444;11.054;2022-11-03T06:13:17;11.40;;;4.77;;
6109;SDS011;3085;49.444;11.054;2022-11-03T06:15:46;13.00;;;4.47;;
6109;SDS011;3085;49.444;11.054;2022-11-03T06:18:18;11.70;;;4.13;;
6109;SDS011;3085;49.444;11.054;2022-11-03T06:20:49;10.17;;;4.43;;
6109;SDS011;3085;49.444;11.054;2022-11-03T06:23:20;7.40;;;3.70;;
6109;SDS011;3085;49.444;11.054;2022-11-03T06:25:47;10.97;;;4.27;;
6109;SDS011;3085;49.444;11.054;2022-11-03T06:28:16;9.00;;;4.07;;
6109;SDS011;3085;49.444;11.054;2022-11-03T06:30:45;12.70;;;5.33;;
6109;SDS011;3085;49.444;11.054;2022-11-03T06:33:14;19.00;;;5.40;;
6109;SDS011;3085;49.444;11.054;2022-11-03T06:35:45;13.57;;;5.03;;
6109;SDS011;3085;49.444;11.054;2022-11-03T06:38:17;7.90;;;4.60;;
6109;SDS011;3085;49.444;11.054;2022-11-03T06:40:46;9.70;;;4.57;;
6109;SDS011;3085;49.444;11.054;2022-11-03T06:43:17;10.70;;;3.97;;
6109;SDS011;3085;49.444;11.054;2022-11-03T06:45:49;17.13;;;4.73;;
6109;SDS011;3085;49.444;11.054;2022-11-03T06:48:22;11.80;;;4.47;;
6109;SDS011;3085;49.444;11.054;2022-11-03T06:50:51;8.17;;;4.30;;
6109;SDS011;3085;49.444;11.054;2022-11-03T06:53:20;8.90;;;4.67;;
6109;SDS011;3085;49.444;11.054;2022-11-03T06:55:50;16.60;;;5.60;;
6109;SDS011;3085;49.444;11.054;2022-11-03T06:58:19;9.97;;;4.40;;
6109;SDS011;3085;49.444;11.054;2022-11-03T07:00:52;5.73;;;3.40;;
6109;SDS011;3085;49.444;11.054;2022-11-03T07:03:21;13.10;;;4.13;;
6109;SDS011;3085;49.444;11.054;2022-11-03T07:05:53;6.80;;;4.00;;
6109;SDS011;3085;49.444;11.054;2022-11-03T07:08:24;15.40;;;6.20;;
6109;SDS011;3085;49.444;11.054;2022-11-03T07:10:59;11.70;;;4.67;;
6109;SDS011;3085;49.444;11.054;2022-11-03T07:13:28;13.97;;;5.90;;
6109;SDS011;3085;49.444;11.054;2022-11-03T07:15:57;11.50;;;5.90;;
6109;SDS011;3085;49.444;11.054;2022-11-03T07:18:26;23.97;;;5.27;;
6109;SDS011;3085;49.444;11.054;2022-11-03T07:20:56;12.73;;;4.20;;
6109;SDS011;3085;49.444;11.054;2022-11-03T07:23:27;9.23;;;5.10;;
6109;SDS011;3085;49.444;11.054;2022-11-03T07:25:56;12.23;;;5.50;;
6109;SDS011;3085;49.444;11.054;2022-11-03T07:28:28;8.97;;;4.10;;
6109;SDS011;3085;49.444;11.054;2022-11-03T07:30:59;10.40;;;4.40;;
6109;SDS011;3085;49.444;11.054;2022-11-03T07:33:28;14.93;;;5.13;;
6109;SDS011;3085;49.444;11.054;2022-11-03T07:35:56;10.60;;;5.63;;
6109;SDS011;3085;49.444;11.054;2022-11-03T07:38:26;15.93;;;6.20;;
6109;SDS011;3085;49.444;11.054;2022-11-03T07:40:55;14.63;;;6.63;;
6109;SDS011;3085;49.444;11.054;2022-11-03T07:43:24;20.20;;;8.43;;
6109;SDS011;3085;49.444;11.054;2022-11-03T07:45:55;12.30;;;5.10;;
6109;SDS011;3085;49.444;11.054;2022-11-03T07:48:24;10.93;;;5.50;;
6109;SDS011;3085;49.444;11.054;2022-11-03T07:50:53;13.50;;;5.10;;
6109;SDS011;3085;49.444;11.054;2022-11-03T07:53:24;12.53;;;5.20;;
6109;SDS011;3085;49.444;11.054;2022-11-03T07:56:00;11.43;;;5.43;;
6109;SDS011;3085;49.444;11.054;2022-11-03T07:58:33;25.00;;;7.40;;
6109;SDS011;3085;49.444;11.054;2022-11-03T08:01:02;12.30;;;5.83;;
6109;SDS011;3085;49.444;11.054;2022-11-03T08:03:45;12.93;;;5.30;;
6109;SDS011;3085;49.444;11.054;2022-11-03T08:06:13;10.67;;;5.40;;
6109;SDS011;3085;49.444;11.054;2022-11-03T08:08:41;9.80;;;5.40;;
6109;SDS011;3085;49.444;11.054;2022-11-03T08:11:08;7.77;;;4.90;;
6109;SDS011;3085;49.444;11.054;2022-11-03T08:13:35;13.63;;;5.10;;
6109;SDS011;3085;49.444;11.054;2022-11-03T08:16:01;9.87;;;5.17;;
6109;SDS011;3085;49.444;11.054;2022-11-03T08:18:28;12.70;;;4.30;;
6109;SDS011;3085;49.444;11.054;2022-11-03T08:20:55;16.60;;;6.30;;
6109;SDS011;3085;49.444;11.054;2022-11-03T08:23:22;18.23;;;6.00;;
6109;SDS011;3085;49.444;11.054;2022-11-03T08:25:50;13.87;;;4.80;;
6109;SDS011;3085;49.444;11.054;2022-11-03T08:28:17;16.97;;;5.53;;
6109;SDS011;3085;49.444;11.054;2022-11-03T08:30:44;13.53;;;5.40;;
6109;SDS011;3085;49.444;11.054;2022-11-03T08:33:11;9.90;;;4.93;;
6109;SDS011;3085;49.444;11.054;2022-11-03T08:35:38;19.27;;;4.87;;
6109;SDS011;3085;49.444;11.054;2022-11-03T08:38:05;13.47;;;4.33;;
6109;SDS011;3085;49.444;11.054;2022-11-03T08:40:32;10.37;;;4.40;;
6109;SDS011;3085;49.444;11.054;2022-11-03T08:43:00;10.87;;;3.80;;
6109;SDS011;3085;49.444;11.054;2022-11-03T08:45:28;8.43;;;4.30;;
6109;SDS011;3085;49.444;11.054;2022-11-03T08:47:55;9.10;;;4.57;;
6109;SDS011;3085;49.444;11.054;2022-11-03T08:50:22;14.63;;;4.60;;
6109;SDS011;3085;49.444;11.054;2022-11-03T08:52:49;11.13;;;4.30;;
6109;SDS011;3085;49.444;11.054;2022-11-03T08:55:16;8.33;;;4.43;;
6109;SDS011;3085;49.444;11.054;2022-11-03T08:57:43;9.60;;;4.10;;
6109;SDS011;3085;49.444;11.054;2022-11-03T09:00:12;5.93;;;3.67;;
6109;SDS011;3085;49.444;11.054;2022-11-03T09:02:40;9.23;;;3.73;;
6109;SDS011;3085;49.444;11.054;2022-11-03T09:05:08;5.90;;;3.40;;
6109;SDS011;3085;49.444;11.054;2022-11-03T09:07:36;8.00;;;3.73;;
6109;SDS011;3085;49.444;11.054;2022-11-03T09:10:03;9.17;;;4.03;;
6109;SDS011;3085;49.444;11.054;2022-11-03T09:12:31;7.70;;;3.40;;
6109;SDS011;3085;49.444;11.054;2022-11-03T09:14:58;6.70;;;3.60;;
6109;SDS011;3085;49.444;11.054;2022-11-03T09:17:26;8.83;;;2.90;;
6109;SDS011;3085;49.444;11.054;2022-11-03T09:19:53;5.60;;;2.97;;
6109;SDS011;3085;49.444;11.054;2022-11-03T09:22:20;5.83;;;3.10;;
6109;SDS011;3085;49.444;11.054;2022-11-03T09:24:47;11.83;;;2.60;;
6109;SDS011;3085;49.444;11.054;2022-11-03T09:27:14;3.70;;;2.37;;
6109;SDS011;3085;49.444;11.054;2022-11-03T09:29:41;5.90;;;3.07;;
6109;SDS011;3085;49.444;11.054;2022-11-03T09:32:08;5.83;;;3.13;;
6109;SDS011;3085;49.444;11.054;2022-11-03T09:34:36;6.33;;;2.60;;
6109;SDS011;3085;49.444;11.054;2022-11-03T09:37:03;6.20;;;3.47;;
6109;SDS011;3085;49.444;11.054;2022-11-03T09:39:30;9.23;;;2.83;;
6109;SDS011;3085;49.444;11.054;2022-11-03T09:41:57;15.40;;;2.80;;
6109;SDS011;3085;49.444;11.054;2022-11-03T09:44:27;5.83;;;2.50;;
6109;SDS011;3085;49.444;11.054;2022-11-03T09:46:55;7.77;;;2.57;;
6109;SDS011;3085;49.444;11.054;2022-11-03T09:49:21;10.00;;;2.63;;
6109;SDS011;3085;49.444;11.054;2022-11-03T09:51:50;5.00;;;2.40;;
6109;SDS011;3085;49.444;11.054;2022-11-03T09:54:18;5.90;;;3.30;;
6109;SDS011;3085;49.444;11.054;2022-11-03T09:56:45;4.67;;;2.20;;
6109;SDS011;3085;49.444;11.054;2022-11-03T09:59:12;5.60;;;2.87;;
6109;SDS011;3085;49.444;11.054;2022-11-03T10:01:43;7.40;;;2.60;;
6109;SDS011;3085;49.444;11.054;2022-11-03T10:04:13;10.30;;;2.80;;
6109;SDS011;3085;49.444;11.054;2022-11-03T10:06:41;3.73;;;2.30;;
6109;SDS011;3085;49.444;11.054;2022-11-03T10:09:11;6.30;;;2.40;;
6109;SDS011;3085;49.444;11.054;2022-11-03T10:11:40;5.37;;;3.33;;
6109;SDS011;3085;49.444;11.054;2022-11-03T10:14:08;15.13;;;3.53;;
6109;SDS011;3085;49.444;11.054;2022-11-03T10:16:39;13.33;;;4.00;;
6109;SDS011;3085;49.444;11.054;2022-11-03T10:19:08;7.37;;;3.67;;
6109;SDS011;3085;49.444;11.054;2022-11-03T10:21:37;11.87;;;4.90;;
6109;SDS011;3085;49.444;11.054;2022-11-03T10:24:04;6.40;;;3.17;;
6109;SDS011;3085;49.444;11.054;2022-11-03T10:26:41;13.07;;;3.50;;
6109;SDS011;3085;49.444;11.054;2022-11-03T10:29:15;4.23;;;2.63;;
6109;SDS011;3085;49.444;11.054;2022-11-03T10:31:47;6.07;;;3.07;;
6109;SDS011;3085;49.444;11.054;2022-11-03T10:34:22;4.43;;;2.40;;
6109;SDS011;3085;49.444;11.054;2022-11-03T10:37:13;14.60;;;3.00;;
6109;SDS011;3085;49.444;11.054;2022-11-03T10:39:46;7.40;;;2.90;;
6109;SDS011;3085;49.444;11.054;2022-11-03T10:42:18;9.03;;;3.40;;
6109;SDS011;3085;49.444;11.054;2022-11-03T10:44:47;15.23;;;3.70;;
6109;SDS011;3085;49.444;11.054;2022-11-03T10:47:21;6.97;;;3.43;;
6109;SDS011;3085;49.444;11.054;2022-11-03T10:49:49;6.30;;;2.93;;
6109;SDS011;3085;49.444;11.054;2022-11-03T10:52:19;8.93;;;4.10;;
6109;SDS011;3085;49.444;11.054;2022-11-03T10:54:47;7.80;;;3.30;;
6109;SDS011;3085;49.444;11.054;2022-11-03T10:57:15;11.80;;;3.90;;
6109;SDS011;3085;49.444;11.054;2022-11-03T10:59:45;6.23;;;3.57;;
6109;SDS011;3085;49.444;11.054;2022-11-03T11:02:14;8.67;;;3.70;;
6109;SDS011;3085;49.444;11.054;2022-11-03T11:04:43;5.53;;;2.90;;
6109;SDS011;3085;49.444;11.054;2022-11-03T11:07:15;6.50;;;3.20;;
6109;SDS011;3085;49.444;11.054;2022-11-03T11:09:45;6.17;;;3.00;;
6109;SDS011;3085;49.444;11.054;2022-11-03T11:12:16;6.53;;;3.83;;
6109;SDS011;3085;49.444;11.054;2022-11-03T11:14:50;6.97;;;3.90;;
6109;SDS011;3085;49.444;11.054;2022-11-03T11:26:14;5.50;;;3.30;;
6109;SDS011;3085;49.444;11.054;2022-11-03T11:28:44;10.03;;;3.60;;
6109;SDS011;3085;49.444;11.054;2022-11-03T11:31:27;12.33;;;3.30;;
6109;SDS011;3085;49.444;11.054;2022-11-03T11:39:59;9.00;;;3.60;;
6109;SDS011;3085;49.444;11.054;2022-11-03T11:42:26;10.80;;;5.30;;
6109;SDS011;3085;49.444;11.054;2022-11-03T11:44:55;5.93;;;3.70;;
6109;SDS011;3085;49.444;11.054;2022-11-03T11:53:11;3.60;;;2.50;;
6109;SDS011;3085;49.444;11.054;2022-11-03T11:55:45;4.93;;;2.73;;
6109;SDS011;3085;49.444;11.054;2022-11-03T11:58:20;5.90;;;3.40;;
6109;SDS011;3085;49.444;11.054;2022-11-03T12:00:52;14.50;;;4.97;;
6109;SDS011;3085;49.444;11.054;2022-11-03T12:03:36;14.33;;;4.13;;
6109;SDS011;3085;49.444;11.054;2022-11-03T12:06:06;8.13;;;2.87;;
6109;SDS011;3085;49.444;11.054;2022-11-03T12:08:34;7.63;;;3.30;;
6109;SDS011;3085;49.444;11.054;2022-11-03T12:11:01;6.40;;;3.17;;
6109;SDS011;3085;49.444;11.054;2022-11-03T12:16:05;8.00;;;3.67;;
6109;SDS011;3085;49.444;11.054;2022-11-03T12:18:33;13.50;;;3.70;;
6109;SDS011;3085;49.444;11.054;2022-11-03T12:21:02;3.73;;;2.97;;
6109;SDS011;3085;49.444;11.054;2022-11-03T12:23:31;6.17;;;3.00;;
6109;SDS011;3085;49.444;11.054;2022-11-03T12:25:59;7.50;;;4.03;;
6109;SDS011;3085;49.444;11.054;2022-11-03T12:28:29;9.33;;;3.77;;
6109;SDS011;3085;49.444;11.054;2022-11-03T12:30:58;5.13;;;3.10;;
6109;SDS011;3085;49.444;11.054;2022-11-03T12:33:27;6.83;;;3.83;;
6109;SDS011;3085;49.444;11.054;2022-11-03T12:35:54;9.43;;;4.30;;
6109;SDS011;3085;49.444;11.054;2022-11-03T12:38:22;6.57;;;2.60;;
6109;SDS011;3085;49.444;11.054;2022-11-03T12:40:49;9.30;;;4.03;;
6109;SDS011;3085;49.444;11.054;2022-11-03T12:43:17;6.43;;;4.07;;
6109;SDS011;3085;49.444;11.054;2022-11-03T12:45:44;10.83;;;3.90;;
6109;SDS011;3085;49.444;11.054;2022-11-03T12:48:11;10.20;;;3.70;;
6109;SDS011;3085;49.444;11.054;2022-11-03T12:50:40;5.03;;;2.93;;
6109;SDS011;3085;49.444;11.054;2022-11-03T12:53:06;10.40;;;4.00;;
6109;SDS011;3085;49.444;11.054;2022-11-03T12:55:33;7.07;;;4.03;;
6109;SDS011;3085;49.444;11.054;2022-11-03T12:58:01;7.27;;;4.20;;
6109;SDS011;3085;49.444;11.054;2022-11-03T13:00:28;5.43;;;3.17;;
6109;SDS011;3085;49.444;11.054;2022-11-03T13:02:55;9.20;;;4.57;;
6109;SDS011;3085;49.444;11.054;2022-11-03T13:05:22;10.70;;;4.43;;
6109;SDS011;3085;49.444;11.054;2022-11-03T13:07:51;7.30;;;4.10;;
6109;SDS011;3085;49.444;11.054;2022-11-03T13:10:18;14.03;;;4.43;;
6109;SDS011;3085;49.444;11.054;2022-11-03T13:12:45;12.53;;;5.00;;
6109;SDS011;3085;49.444;11.054;2022-11-03T13:15:11;20.27;;;6.73;;
6109;SDS011;3085;49.444;11.054;2022-11-03T13:17:39;12.40;;;4.97;;
6109;SDS011;3085;49.444;11.054;2022-11-03T13:20:07;8.00;;;4.40;;
6109;SDS011;3085;49.444;11.054;2022-11-03T13:22:35;11.60;;;5.10;;
6109;SDS011;3085;49.444;11.054;2022-11-03T13:25:05;15.67;;;6.03;;
6109;SDS011;3085;49.444;11.054;2022-11-03T13:27:32;11.70;;;4.67;;
6109;SDS011;3085;49.444;11.054;2022-11-03T13:29:59;12.63;;;5.00;;
6109;SDS011;3085;49.444;11.054;2022-11-03T13:32:26;9.70;;;4.60;;
6109;SDS011;3085;49.444;11.054;2022-11-03T13:34:53;9.37;;;4.50;;
6109;SDS011;3085;49.444;11.054;2022-11-03T13:37:20;9.30;;;5.63;;
6109;SDS011;3085;49.444;11.054;2022-11-03T13:39:46;7.77;;;3.70;;
6109;SDS011;3085;49.444;11.054;2022-11-03T13:42:15;7.03;;;4.00;;
6109;SDS011;3085;49.444;11.054;2022-11-03T13:44:41;18.27;;;4.00;;
6109;SDS011;3085;49.444;11.054;2022-11-03T13:47:08;12.40;;;5.30;;
6109;SDS011;3085;49.444;11.054;2022-11-03T13:49:35;8.03;;;4.33;;
6109;SDS011;3085;49.444;11.054;2022-11-03T13:52:03;8.53;;;4.70;;
6109;SDS011;3085;49.444;11.054;2022-11-03T13:54:30;8.90;;;5.30;;
6109;SDS011;3085;49.444;11.054;2022-11-03T13:56:57;14.03;;;5.33;;
6109;SDS011;3085;49.444;11.054;2022-11-03T13:59:25;9.00;;;5.30;;
6109;SDS011;3085;49.444;11.054;2022-11-03T14:01:52;11.47;;;4.90;;
6109;SDS011;3085;49.444;11.054;2022-11-03T14:04:19;15.60;;;5.67;;
6109;SDS011;3085;49.444;11.054;2022-11-03T14:06:46;8.40;;;4.40;;
6109;SDS011;3085;49.444;11.054;2022-11-03T14:09:13;25.27;;;6.47;;
6109;SDS011;3085;49.444;11.054;2022-11-03T14:11:39;23.07;;;9.87;;
6109;SDS011;3085;49.444;11.054;2022-11-03T14:14:25;14.97;;;5.80;;
6109;SDS011;3085;49.444;11.054;2022-11-03T14:16:52;13.67;;;5.73;;
6109;SDS011;3085;49.444;11.054;2022-11-03T14:19:19;12.63;;;6.10;;
6109;SDS011;3085;49.444;11.054;2022-11-03T14:21:47;11.77;;;6.40;;
6109;SDS011;3085;49.444;11.054;2022-11-03T14:24:14;13.83;;;6.80;;
6109;SDS011;3085;49.444;11.054;2022-11-03T14:26:42;16.07;;;7.87;;
6109;SDS011;3085;49.444;11.054;2022-11-03T14:29:08;16.00;;;7.33;;
6109;SDS011;3085;49.444;11.054;2022-11-03T14:31:37;18.70;;;7.60;;
6109;SDS011;3085;49.444;11.054;2022-11-03T14:34:04;13.27;;;7.33;;
6109;SDS011;3085;49.444;11.054;2022-11-03T14:36:31;12.67;;;6.23;;
6109;SDS011;3085;49.444;11.054;2022-11-03T14:38:57;13.07;;;7.10;;
6109;SDS011;3085;49.444;11.054;2022-11-03T14:41:25;19.27;;;8.60;;
6109;SDS011;3085;49.444;11.054;2022-11-03T14:44:09;16.37;;;7.80;;
6109;SDS011;3085;49.444;11.054;2022-11-03T14:46:37;19.40;;;7.77;;
6109;SDS011;3085;49.444;11.054;2022-11-03T14:49:04;22.63;;;8.10;;
6109;SDS011;3085;49.444;11.054;2022-11-03T14:51:33;13.13;;;7.97;;
6109;SDS011;3085;49.444;11.054;2022-11-03T14:54:00;17.80;;;7.40;;
6109;SDS011;3085;49.444;11.054;2022-11-03T14:56:27;13.37;;;7.17;;
6109;SDS011;3085;49.444;11.054;2022-11-03T14:58:54;13.33;;;7.73;;
6109;SDS011;3085;49.444;11.054;2022-11-03T15:01:20;17.60;;;7.60;;
6109;SDS011;3085;49.444;11.054;2022-11-03T15:03:49;16.33;;;7.67;;
6109;SDS011;3085;49.444;11.054;2022-11-03T15:06:16;20.20;;;8.27;;
6109;SDS011;3085;49.444;11.054;2022-11-03T15:08:43;16.70;;;6.83;;
6109;SDS011;3085;49.444;11.054;2022-11-03T15:11:10;12.60;;;6.87;;
6109;SDS011;3085;49.444;11.054;2022-11-03T15:13:37;14.60;;;7.20;;
6109;SDS011;3085;49.444;11.054;2022-11-03T15:16:04;21.23;;;7.90;;
6109;SDS011;3085;49.444;11.054;2022-11-03T15:18:31;15.37;;;7.40;;
6109;SDS011;3085;49.444;11.054;2022-11-03T15:20:59;19.63;;;9.17;;
6109;SDS011;3085;49.444;11.054;2022-11-03T15:23:26;13.97;;;7.10;;
6109;SDS011;3085;49.444;11.054;2022-11-03T15:25:53;19.40;;;8.63;;
6109;SDS011;3085;49.444;11.054;2022-11-03T15:28:22;15.70;;;7.37;;
6109;SDS011;3085;49.444;11.054;2022-11-03T15:30:49;12.63;;;7.47;;
6109;SDS011;3085;49.444;11.054;2022-11-03T15:33:16;14.70;;;6.20;;